Time;durP1;ratioP1;P1;durP2;ratioP2;P2;SDS_P1;SDS_P2;PMS_P1;PMS_P2;Temp;Humidity;BMP_temperature;BMP_pressure;BME280_temperature;BME280_humidity;BME280_pressure;Samples;Min_cycle;Max_cycle;Signal;HPM_P1;HPM_P2
2020/12/21 00:01:59;;;;;;;20.73;10.77;;;3.70;99.90;;;;;;4952404;29;20161;-78
2020/12/21 00:04:25;;;;;;;19.13;11.05;;;3.70;99.90;;;;;;4951193;29;20047;-79
2020/12/21 00:06:54;;;;;;;22.48;12.38;;;3.60;99.90;;;;;;4935401;29;20498;-79
2020/12/21 00:09:21;;;;;;;26.00;12.30;;;3.60;99.90;;;;;;4948973;29;20039;-78
2020/12/21 00:11:48;;;;;;;20.13;12.50;;;3.60;99.90;;;;;;4990542;28;20065;-78
2020/12/21 00:14:14;;;;;;;21.08;11.82;;;3.50;99.90;;;;;;5034013;28;20486;-78
2020/12/21 00:16:42;;;;;;;19.02;10.38;;;3.50;99.90;;;;;;5032314;28;20037;-78
2020/12/21 00:19:10;;;;;;;16.55;10.80;;;3.50;99.90;;;;;;5011738;28;20021;-78
2020/12/21 00:21:37;;;;;;;20.55;11.05;;;3.50;99.90;;;;;;5031217;28;20057;-78
2020/12/21 00:24:03;;;;;;;24.48;13.35;;;3.50;99.90;;;;;;5029008;28;20035;-77
2020/12/21 00:26:29;;;;;;;26.40;11.30;;;3.40;99.90;;;;;;4998664;28;20352;-76
2020/12/21 00:28:55;;;;;;;23.60;12.25;;;3.40;99.90;;;;;;5030085;28;20037;-76
2020/12/21 00:31:29;;;;;;;19.50;11.55;;;3.40;99.90;;;;;;5027991;28;20025;-78
2020/12/21 00:33:54;;;;;;;;;;;3.40;99.90;;;;;;5004133;28;20060;-78
2020/12/21 00:36:21;;;;;;;27.88;14.20;;;3.40;99.90;;;;;;5028734;28;19909;-78
2020/12/21 00:38:48;;;;;;;22.77;11.38;;;3.40;99.90;;;;;;5032368;28;20021;-80
2020/12/21 00:41:16;;;;;;;19.15;11.43;;;3.40;99.90;;;;;;5006179;28;20076;-80
2020/12/21 00:43:45;;;;;;;22.58;12.48;;;3.40;99.90;;;;;;5004824;28;20033;-78
2020/12/21 00:46:15;;;;;;;22.77;11.63;;;3.40;99.90;;;;;;5001329;28;20088;-82
2020/12/21 00:48:42;;;;;;;22.83;10.98;;;3.40;99.90;;;;;;5026594;28;20108;-78
2020/12/21 00:51:09;;;;;;;28.20;13.65;;;3.40;99.90;;;;;;5033154;28;20018;-79
2020/12/21 00:53:35;;;;;;;28.73;13.25;;;3.40;99.90;;;;;;5024945;28;20018;-79
2020/12/21 00:56:02;;;;;;;33.75;13.68;;;3.40;99.90;;;;;;5019996;28;20099;-78
2020/12/21 00:58:33;;;;;;;26.10;13.63;;;3.40;99.90;;;;;;5016663;28;20026;-78
2020/12/21 01:01:00;;;;;;;31.50;13.48;;;3.40;99.90;;;;;;5016286;28;20053;-78
2020/12/21 01:03:26;;;;;;;30.98;13.35;;;3.30;99.90;;;;;;5023200;28;20033;-77
2020/12/21 01:05:56;;;;;;;26.45;13.40;;;3.30;99.90;;;;;;5029514;28;20021;-77
2020/12/21 01:08:22;;;;;;;24.17;11.30;;;3.30;99.90;;;;;;5027926;28;20030;-79
2020/12/21 01:10:48;;;;;;;21.38;11.85;;;3.40;99.90;;;;;;5003482;28;20037;-80
2020/12/21 01:13:15;;;;;;;23.08;9.82;;;3.40;99.90;;;;;;5008335;28;20053;-80
2020/12/21 01:15:42;;;;;;;24.88;11.05;;;3.40;99.90;;;;;;5004378;28;20034;-81
2020/12/21 01:18:08;;;;;;;29.98;11.15;;;3.40;99.90;;;;;;5010678;28;20035;-77
2020/12/21 01:20:41;;;;;;;21.90;10.60;;;3.50;99.90;;;;;;5031187;28;20025;-80
2020/12/21 01:23:07;;;;;;;19.88;10.70;;;3.50;99.90;;;;;;5031646;28;20060;-80
2020/12/21 01:25:33;;;;;;;24.17;10.38;;;3.50;99.90;;;;;;5005329;28;20163;-80
2020/12/21 01:27:59;;;;;;;18.55;9.77;;;3.50;99.90;;;;;;5011912;28;20040;-80
2020/12/21 01:30:25;;;;;;;18.38;10.32;;;3.50;99.90;;;;;;5028248;28;20018;-81
2020/12/21 01:32:51;;;;;;;21.05;10.85;;;3.50;99.90;;;;;;5030463;28;20022;-81
2020/12/21 01:35:17;;;;;;;20.08;9.02;;;3.50;99.90;;;;;;5028736;28;20071;-82
2020/12/21 01:37:43;;;;;;;21.00;9.68;;;3.50;99.90;;;;;;5012077;28;20041;-79
2020/12/21 01:40:10;;;;;;;21.13;10.20;;;3.60;99.90;;;;;;5025176;28;20026;-82
2020/12/21 01:42:36;;;;;;;12.32;8.32;;;3.60;99.90;;;;;;5005608;28;20430;-81
2020/12/21 01:45:07;;;;;;;17.98;10.45;;;3.60;99.90;;;;;;5026747;28;20448;-78
2020/12/21 01:47:33;;;;;;;20.33;10.15;;;3.70;99.90;;;;;;5011007;28;20032;-79
2020/12/21 01:49:59;;;;;;;23.45;10.73;;;3.70;99.90;;;;;;5024203;28;20038;-83
2020/12/21 01:52:24;;;;;;;21.52;10.07;;;3.70;99.90;;;;;;5021160;28;20018;-79
2020/12/21 01:54:51;;;;;;;16.15;8.75;;;3.70;99.90;;;;;;5018773;28;20387;-77
2020/12/21 01:57:20;;;;;;;17.65;10.52;;;3.70;99.90;;;;;;5027526;28;20022;-77
2020/12/21 01:59:46;;;;;;;18.85;10.13;;;3.60;99.90;;;;;;5041074;28;20088;-78
2020/12/21 02:02:12;;;;;;;19.80;9.63;;;3.60;99.90;;;;;;5037575;28;20120;-77
2020/12/21 02:04:38;;;;;;;18.35;10.35;;;3.70;99.90;;;;;;5032481;28;20064;-79
2020/12/21 02:07:06;;;;;;;22.58;9.82;;;3.70;99.90;;;;;;5024238;28;20075;-77
2020/12/21 02:09:33;;;;;;;19.02;9.20;;;3.70;99.90;;;;;;5019816;28;20040;-78
2020/12/21 02:11:58;;;;;;;16.67;8.77;;;3.60;99.90;;;;;;5032231;28;20149;-77
2020/12/21 02:14:24;;;;;;;25.60;10.00;;;3.70;99.90;;;;;;5032140;28;20104;-77
2020/12/21 02:16:50;;;;;;;21.45;9.00;;;3.70;99.90;;;;;;5016635;28;20097;-83
2020/12/21 02:19:18;;;;;;;21.67;10.65;;;3.70;99.90;;;;;;5003188;28;20049;-76
2020/12/21 02:21:44;;;;;;;17.50;8.27;;;3.70;99.90;;;;;;5027899;28;20026;-77
2020/12/21 02:24:10;;;;;;;15.23;8.43;;;3.70;99.90;;;;;;5031747;28;20112;-75
2020/12/21 02:26:36;;;;;;;15.40;8.52;;;3.80;99.90;;;;;;5031299;28;20498;-76
2020/12/21 02:29:02;;;;;;;19.17;9.05;;;3.80;99.90;;;;;;5014187;28;20030;-76
2020/12/21 02:31:27;;;;;;;16.85;7.90;;;3.80;99.90;;;;;;5028279;28;20067;-78
2020/12/21 02:33:53;;;;;;;11.50;7.80;;;3.80;99.90;;;;;;5030812;28;20018;-75
2020/12/21 02:36:19;;;;;;;11.65;6.68;;;3.80;99.90;;;;;;5031376;28;20375;-77
2020/12/21 02:38:46;;;;;;;15.00;8.13;;;3.80;99.90;;;;;;5031130;28;20033;-77
2020/12/21 02:41:18;;;;;;;13.45;7.13;;;3.80;99.90;;;;;;4999968;28;20025;-79
2020/12/21 02:43:45;;;;;;;16.93;8.23;;;3.80;99.90;;;;;;5031923;28;20353;-77
2020/12/21 02:46:12;;;;;;;16.15;7.80;;;3.80;99.90;;;;;;5030829;28;20037;-77
2020/12/21 02:48:38;;;;;;;13.63;7.72;;;3.80;99.90;;;;;;5031360;28;20033;-78
2020/12/21 02:51:04;;;;;;;14.60;7.20;;;3.80;99.90;;;;;;5031268;28;20733;-77
2020/12/21 02:53:30;;;;;;;18.15;8.35;;;3.80;99.90;;;;;;5024144;28;20082;-76
2020/12/21 02:55:56;;;;;;;13.40;8.45;;;3.80;99.90;;;;;;5010512;28;20479;-75
2020/12/21 02:58:22;;;;;;;14.13;7.43;;;3.80;99.90;;;;;;5014690;28;20026;-77
2020/12/21 03:00:48;;;;;;;19.98;8.30;;;3.80;99.90;;;;;;5002320;28;20046;-77
2020/12/21 03:03:14;;;;;;;13.73;8.60;;;3.80;99.90;;;;;;5012421;28;20104;-77
2020/12/21 03:05:40;;;;;;;11.75;7.70;;;3.80;99.90;;;;;;5015734;28;20030;-77
2020/12/21 03:08:07;;;;;;;16.77;7.60;;;3.80;99.90;;;;;;4997727;28;20080;-77
2020/12/21 03:10:34;;;;;;;16.02;8.15;;;3.80;99.90;;;;;;5014813;28;20079;-76
2020/12/21 03:13:00;;;;;;;14.98;7.15;;;3.90;99.90;;;;;;4997679;28;20049;-76
2020/12/21 03:15:26;;;;;;;14.38;6.13;;;3.90;99.90;;;;;;5014311;28;20460;-75
2020/12/21 03:17:52;;;;;;;19.55;7.18;;;3.90;99.90;;;;;;4995969;28;20045;-77
2020/12/21 03:20:18;;;;;;;21.38;7.63;;;3.90;99.90;;;;;;5014407;28;20026;-78
2020/12/21 03:22:47;;;;;;;17.98;7.45;;;3.90;99.90;;;;;;5014615;28;20029;-74
2020/12/21 03:25:12;;;;;;;16.83;7.20;;;3.90;99.90;;;;;;5013607;28;20508;-73
2020/12/21 03:27:38;;;;;;;21.92;8.10;;;3.90;99.90;;;;;;5015075;28;20045;-75
2020/12/21 03:30:05;;;;;;;17.02;6.72;;;4.00;99.90;;;;;;5014510;28;20088;-76
2020/12/21 03:32:30;;;;;;;13.63;6.65;;;4.00;99.90;;;;;;5014323;28;20025;-75
2020/12/21 03:34:56;;;;;;;16.13;6.82;;;4.00;99.90;;;;;;5014870;28;20393;-75
2020/12/21 03:37:22;;;;;;;15.82;7.63;;;3.90;99.90;;;;;;5014485;28;20026;-76
2020/12/21 03:39:48;;;;;;;13.18;7.07;;;3.90;99.90;;;;;;5017204;28;20032;-75
2020/12/21 03:42:13;;;;;;;15.35;6.55;;;3.90;99.90;;;;;;5015703;28;20030;-76
2020/12/21 03:44:39;;;;;;;21.80;8.00;;;3.90;99.90;;;;;;5015020;28;20065;-76
2020/12/21 03:47:05;;;;;;;15.77;8.63;;;3.90;99.90;;;;;;5015800;28;20026;-76
2020/12/21 03:49:31;;;;;;;18.15;8.13;;;4.00;99.90;;;;;;5028406;28;20682;-76
2020/12/21 03:52:05;;;;;;;15.95;8.43;;;3.90;99.90;;;;;;5006225;28;20029;-77
2020/12/21 03:54:31;;;;;;;12.80;6.95;;;3.90;99.90;;;;;;5019172;28;20072;-74
2020/12/21 03:56:56;;;;;;;15.43;7.20;;;3.90;99.90;;;;;;5015323;28;20030;-78
2020/12/21 03:59:22;;;;;;;16.38;8.20;;;3.90;99.90;;;;;;5013669;28;20064;-76
2020/12/21 04:01:48;;;;;;;12.70;7.78;;;4.00;99.90;;;;;;5015029;28;20468;-75
2020/12/21 04:04:13;;;;;;;19.63;8.82;;;4.00;99.90;;;;;;5015137;28;20079;-76
2020/12/21 04:06:39;;;;;;;14.38;8.68;;;3.90;99.90;;;;;;5014736;28;20089;-76
2020/12/21 04:09:05;;;;;;;13.30;8.38;;;3.90;99.90;;;;;;4997527;28;20030;-75
2020/12/21 04:11:31;;;;;;;17.85;8.82;;;3.90;99.90;;;;;;5014285;28;20033;-75
2020/12/21 04:13:56;;;;;;;17.85;9.85;;;3.90;99.90;;;;;;5022230;28;20481;-75
2020/12/21 04:16:22;;;;;;;16.80;8.60;;;3.90;99.90;;;;;;5002825;28;20025;-75
2020/12/21 04:18:48;;;;;;;18.27;9.57;;;3.90;99.90;;;;;;5013478;28;20033;-73
2020/12/21 04:21:14;;;;;;;14.40;8.73;;;3.80;99.90;;;;;;5026323;28;20049;-73
2020/12/21 04:23:41;;;;;;;14.50;8.57;;;3.80;99.90;;;;;;5016794;28;20041;-75
2020/12/21 04:26:07;;;;;;;16.10;8.75;;;3.80;99.90;;;;;;5024134;28;20037;-75
2020/12/21 04:28:33;;;;;;;19.25;8.38;;;3.80;99.90;;;;;;5014368;28;20529;-75
2020/12/21 04:31:03;;;;;;;21.55;8.80;;;3.80;99.90;;;;;;4997159;28;20030;-76
2020/12/21 04:33:29;;;;;;;16.15;7.72;;;3.80;99.90;;;;;;5028530;28;20034;-75
2020/12/21 04:35:55;;;;;;;14.82;9.13;;;3.80;99.90;;;;;;5034047;28;20368;-75
2020/12/21 04:38:21;;;;;;;19.25;9.25;;;3.90;99.90;;;;;;5020959;28;20026;-76
2020/12/21 04:40:51;;;;;;;14.68;7.70;;;3.90;99.90;;;;;;5012036;28;20076;-75
2020/12/21 04:43:17;;;;;;;14.77;8.55;;;3.90;99.90;;;;;;5014622;28;20029;-75
2020/12/21 04:45:43;;;;;;;13.88;8.05;;;3.90;99.90;;;;;;5014350;28;20032;-76
2020/12/21 04:48:14;;;;;;;17.67;9.75;;;4.00;99.90;;;;;;5013449;28;20107;-75
2020/12/21 04:50:41;;;;;;;17.08;8.98;;;3.90;99.90;;;;;;5014310;28;20026;-76
2020/12/21 04:53:08;;;;;;;27.08;10.40;;;3.90;99.90;;;;;;5019319;28;20028;-74
2020/12/21 04:55:34;;;;;;;22.50;11.10;;;4.00;99.90;;;;;;5005361;28;20071;-76
2020/12/21 04:58:04;;;;;;;24.98;11.02;;;4.00;99.90;;;;;;5013972;28;20026;-76
2020/12/21 05:00:35;;;;;;;15.40;8.68;;;4.00;99.90;;;;;;5012819;28;20360;-75
2020/12/21 05:03:03;;;;;;;14.82;9.23;;;4.00;99.90;;;;;;5009724;28;20018;-76
2020/12/21 05:05:33;;;;;;;12.68;8.48;;;4.00;99.90;;;;;;5032093;28;20026;-75
2020/12/21 05:08:09;;;;;;;15.32;7.60;;;4.00;99.90;;;;;;5003206;28;20438;-77
2020/12/21 05:10:40;;;;;;;17.67;9.52;;;4.00;99.90;;;;;;5013933;28;20380;-76
2020/12/21 05:13:06;;;;;;;13.77;8.95;;;4.00;99.90;;;;;;4996293;28;20022;-74
2020/12/21 05:15:33;;;;;;;21.25;9.05;;;4.00;99.90;;;;;;5013446;28;20028;-73
2020/12/21 05:18:11;;;;;;;25.23;10.35;;;4.00;99.90;;;;;;4996334;28;20026;-73
2020/12/21 05:20:41;;;;;;;19.70;11.10;;;4.00;99.90;;;;;;5013309;28;20017;-74
2020/12/21 05:23:17;;;;;;;15.63;9.30;;;4.00;99.90;;;;;;5012760;28;20080;-74
2020/12/21 05:25:44;;;;;;;17.90;10.77;;;4.00;99.90;;;;;;5013162;28;20033;-75
2020/12/21 05:28:11;;;;;;;24.60;12.40;;;4.00;99.90;;;;;;5013782;28;20064;-75
2020/12/21 05:30:49;;;;;;;20.48;10.93;;;4.00;99.90;;;;;;5027101;28;20018;-74
2020/12/21 05:33:15;;;;;;;15.77;10.32;;;4.00;99.90;;;;;;5013130;28;20064;-74
2020/12/21 05:35:41;;;;;;;19.30;10.88;;;3.90;99.90;;;;;;5013115;28;20037;-74
2020/12/21 05:38:07;;;;;;;23.17;11.52;;;3.90;99.90;;;;;;5013319;28;20388;-74
2020/12/21 05:40:33;;;;;;;21.10;10.05;;;3.90;99.90;;;;;;5013025;28;20025;-74
2020/12/21 05:42:59;;;;;;;22.65;11.32;;;3.90;99.90;;;;;;5012171;28;20030;-74
2020/12/21 05:45:24;;;;;;;21.17;12.40;;;3.90;99.90;;;;;;5013225;28;20400;-74
2020/12/21 05:47:54;;;;;;;18.60;11.27;;;3.90;99.90;;;;;;5013232;28;20030;-73
2020/12/21 05:50:21;;;;;;;20.25;11.18;;;3.90;99.90;;;;;;5012873;28;20054;-74
2020/12/21 05:52:53;;;;;;;21.13;12.77;;;3.90;99.90;;;;;;5027140;28;20037;-73
2020/12/21 05:55:21;;;;;;;26.92;14.10;;;4.00;99.90;;;;;;5013250;28;20109;-74
2020/12/21 05:57:48;;;;;;;26.13;14.85;;;4.00;99.90;;;;;;5012943;28;20395;-74
2020/12/21 06:00:15;;;;;;;27.55;14.68;;;4.00;99.90;;;;;;5013332;28;20018;-75
2020/12/21 06:02:42;;;;;;;26.80;14.35;;;4.00;99.90;;;;;;5010981;28;20183;-75
2020/12/21 06:05:14;;;;;;;20.40;12.35;;;4.00;99.90;;;;;;5012392;28;20392;-75
2020/12/21 06:07:49;;;;;;;24.65;13.43;;;4.00;99.90;;;;;;5012950;28;20025;-74
2020/12/21 06:10:15;;;;;;;23.88;12.48;;;4.00;99.90;;;;;;5012332;28;20375;-74
2020/12/21 06:12:47;;;;;;;24.42;11.52;;;4.00;99.90;;;;;;4995550;28;20059;-74
2020/12/21 06:15:16;;;;;;;22.90;10.38;;;4.00;99.90;;;;;;5012962;28;20026;-75
2020/12/21 06:17:42;;;;;;;19.48;11.27;;;4.00;99.90;;;;;;5012788;28;20022;-74
2020/12/21 06:20:09;;;;;;;22.90;11.85;;;4.00;99.90;;;;;;5013001;28;20028;-73
2020/12/21 06:22:38;;;;;;;24.38;12.20;;;4.00;99.90;;;;;;5011942;28;20093;-73
2020/12/21 06:25:07;;;;;;;29.35;14.57;;;4.00;99.90;;;;;;4996426;28;20027;-73
2020/12/21 06:27:41;;;;;;;31.48;13.68;;;4.00;99.90;;;;;;5024341;28;20036;-74
2020/12/21 06:30:09;;;;;;;32.80;16.27;;;4.00;99.90;;;;;;5011979;28;20038;-73
2020/12/21 06:32:35;;;;;;;29.63;14.60;;;4.00;99.90;;;;;;4995181;28;20113;-74
2020/12/21 06:35:16;;;;;;;39.17;18.23;;;4.10;99.90;;;;;;5012841;28;20101;-74
2020/12/21 06:37:53;;;;;;;56.67;24.77;;;4.10;99.90;;;;;;5003525;28;20033;-75
2020/12/21 06:40:32;;;;;;;51.03;24.33;;;4.10;99.90;;;;;;5021102;28;20037;-75
2020/12/21 06:43:14;;;;;;;33.15;17.25;;;4.10;99.90;;;;;;5015917;28;20109;-74
2020/12/21 06:45:40;;;;;;;41.10;17.98;;;4.10;99.90;;;;;;5025560;28;20029;-78
2020/12/21 06:48:08;;;;;;;30.25;16.27;;;4.10;99.90;;;;;;5025027;28;20029;-73
2020/12/21 06:50:34;;;;;;;35.33;16.67;;;4.10;99.90;;;;;;5032445;28;20490;-74
2020/12/21 06:53:00;;;;;;;36.83;17.77;;;4.10;99.90;;;;;;5029466;28;20032;-74
2020/12/21 06:55:33;;;;;;;34.50;16.88;;;4.20;99.90;;;;;;5024597;28;20029;-75
2020/12/21 06:57:59;;;;;;;33.60;16.00;;;4.20;99.90;;;;;;5009851;28;20029;-74
2020/12/21 07:00:25;;;;;;;26.33;13.77;;;4.30;99.90;;;;;;5024165;28;20033;-73
2020/12/21 07:02:51;;;;;;;26.75;15.02;;;4.30;99.90;;;;;;5028097;28;20036;-73
2020/12/21 07:05:17;;;;;;;29.15;15.95;;;4.30;99.90;;;;;;5033510;28;20025;-74
2020/12/21 07:07:43;;;;;;;23.67;13.90;;;4.30;99.90;;;;;;5031760;28;20372;-75
2020/12/21 07:10:12;;;;;;;21.23;11.45;;;4.40;99.90;;;;;;5004349;28;20459;-77
2020/12/21 07:12:38;;;;;;;26.23;14.35;;;4.40;99.90;;;;;;5022814;28;20033;-74
2020/12/21 07:15:05;;;;;;;27.48;14.18;;;4.50;99.90;;;;;;5000982;28;20045;-73
2020/12/21 07:17:31;;;;;;;25.65;13.68;;;4.50;99.90;;;;;;5000874;28;20037;-73
2020/12/21 07:19:58;;;;;;;25.85;14.48;;;4.50;99.90;;;;;;5031538;28;20069;-73
2020/12/21 07:22:25;;;;;;;23.88;14.55;;;4.60;99.90;;;;;;5031914;28;20026;-72
2020/12/21 07:24:51;;;;;;;37.88;19.30;;;4.60;99.90;;;;;;5021434;28;20034;-73
2020/12/21 07:27:17;;;;;;;30.90;16.63;;;4.60;99.90;;;;;;5019874;28;20041;-73
2020/12/21 07:29:42;;;;;;;31.95;17.08;;;4.60;99.90;;;;;;5020884;28;20018;-72
2020/12/21 07:32:09;;;;;;;34.25;18.80;;;4.60;99.90;;;;;;5033953;28;20025;-73
2020/12/21 07:34:35;;;;;;;37.00;21.13;;;4.60;99.90;;;;;;5034990;28;20029;-73
2020/12/21 07:37:08;;;;;;;31.65;17.33;;;4.70;99.90;;;;;;5034496;28;20426;-73
2020/12/21 07:39:34;;;;;;;33.97;19.92;;;4.60;99.90;;;;;;5019675;28;20113;-73
2020/12/21 07:42:05;;;;;;;33.55;17.75;;;4.60;99.90;;;;;;5020218;28;20057;-74
2020/12/21 07:44:46;;;;;;;33.53;19.65;;;4.60;99.90;;;;;;5022019;28;20026;-75
2020/12/21 07:47:15;;;;;;;41.63;21.45;;;4.70;99.90;;;;;;5025730;28;20364;-73
2020/12/21 07:49:42;;;;;;;39.80;19.33;;;4.70;99.90;;;;;;5032472;28;20037;-73
2020/12/21 07:52:14;;;;;;;35.00;20.70;;;4.70;99.90;;;;;;5028115;28;20045;-73
2020/12/21 07:54:44;;;;;;;32.92;19.50;;;4.80;99.90;;;;;;5032658;28;20053;-73
2020/12/21 07:57:11;;;;;;;44.63;20.85;;;4.70;99.90;;;;;;5010204;28;20033;-71
2020/12/21 07:59:55;;;;;;;33.83;17.92;;;4.70;99.90;;;;;;5032794;28;20025;-74
2020/12/21 08:02:33;;;;;;;44.80;21.65;;;4.70;99.90;;;;;;5013834;28;20127;-79
2020/12/21 08:04:59;;;;;;;43.15;24.30;;;4.80;99.90;;;;;;5032687;28;20045;-74
2020/12/21 08:07:29;;;;;;;40.72;21.48;;;4.90;99.90;;;;;;5033747;28;20551;-76
2020/12/21 08:09:55;;;;;;;44.97;22.63;;;4.90;99.90;;;;;;5046804;28;20081;-76
2020/12/21 08:12:30;;;;;;;48.50;25.70;;;5.00;99.90;;;;;;5036931;28;20025;-75
2020/12/21 08:15:00;;;;;;;48.90;23.58;;;5.10;99.90;;;;;;5017799;28;20532;-74
2020/12/21 08:17:29;;;;;;;43.45;22.08;;;5.20;99.90;;;;;;5016938;28;20041;-74
2020/12/21 08:19:58;;;;;;;32.28;17.88;;;5.30;99.90;;;;;;5019413;28;20052;-73
2020/12/21 08:22:26;;;;;;;25.10;14.15;;;5.30;99.90;;;;;;5022854;28;20028;-75
2020/12/21 08:25:07;;;;;;;34.33;17.80;;;5.30;99.90;;;;;;5017240;28;20113;-73
2020/12/21 08:27:41;;;;;;;30.58;16.40;;;5.30;99.90;;;;;;5023635;28;20472;-73
2020/12/21 08:30:12;;;;;;;23.13;12.90;;;5.30;99.90;;;;;;5029678;28;20476;-72
2020/12/21 08:32:38;;;;;;;27.92;15.45;;;5.30;99.90;;;;;;5023275;28;20076;-73
2020/12/21 08:35:04;;;;;;;38.28;17.10;;;5.40;99.90;;;;;;5031419;28;20033;-74
2020/12/21 08:37:30;;;;;;;37.30;19.10;;;5.50;99.90;;;;;;5031934;28;20033;-72
2020/12/21 08:39:56;;;;;;;21.73;12.32;;;5.50;99.90;;;;;;5028430;28;20036;-73
2020/12/21 08:42:22;;;;;;;26.42;13.38;;;5.50;99.90;;;;;;4997901;28;20699;-74
2020/12/21 08:44:51;;;;;;;19.10;10.52;;;5.60;99.90;;;;;;5015992;28;20022;-75
2020/12/21 08:47:26;;;;;;;26.38;13.40;;;5.60;99.90;;;;;;5020728;28;20022;-74
2020/12/21 08:49:52;;;;;;;27.70;13.23;;;5.60;99.90;;;;;;5014295;28;20041;-73
2020/12/21 08:52:17;;;;;;;22.65;13.48;;;5.60;99.90;;;;;;5015128;28;20476;-74
2020/12/21 08:54:43;;;;;;;21.52;11.38;;;5.50;99.90;;;;;;5017510;28;20021;-74
2020/12/21 08:57:09;;;;;;;16.55;9.75;;;5.50;99.90;;;;;;5033016;28;20040;-73
2020/12/21 08:59:36;;;;;;;19.65;10.05;;;5.40;99.90;;;;;;5033246;28;20036;-74
2020/12/21 09:02:02;;;;;;;19.92;12.02;;;5.40;99.90;;;;;;5026058;28;20050;-76
2020/12/21 09:04:28;;;;;;;20.25;10.13;;;5.50;99.90;;;;;;5027343;28;20018;-76
2020/12/21 09:06:54;;;;;;;14.77;9.40;;;5.60;99.90;;;;;;5032052;28;20025;-73
2020/12/21 09:09:22;;;;;;;26.17;11.98;;;5.80;99.90;;;;;;5023917;28;20034;-73
2020/12/21 09:11:55;;;;;;;17.83;10.60;;;6.00;99.90;;;;;;5030928;28;20057;-74
2020/12/21 09:14:24;;;;;;;24.70;14.50;;;6.40;99.90;;;;;;5018466;28;20476;-74
2020/12/21 09:16:53;;;;;;;17.77;9.68;;;6.60;99.90;;;;;;5001049;28;20037;-74
2020/12/21 09:19:19;;;;;;;21.10;9.57;;;6.60;99.90;;;;;;5016163;28;20057;-74
2020/12/21 09:21:46;;;;;;;17.77;10.40;;;6.70;99.90;;;;;;5018503;28;20018;-74
2020/12/21 09:24:12;;;;;;;19.15;11.18;;;6.90;99.90;;;;;;5019183;28;20376;-74
2020/12/21 09:26:38;;;;;;;17.60;10.98;;;7.20;99.90;;;;;;5017525;28;20026;-73
2020/12/21 09:29:04;;;;;;;11.63;7.20;;;7.30;99.90;;;;;;5023549;28;20448;-73
2020/12/21 09:31:30;;;;;;;15.40;9.07;;;7.40;99.90;;;;;;4999221;28;20022;-73
2020/12/21 09:33:56;;;;;;;13.60;6.95;;;;;;;;;;5018162;28;20383;-74
2020/12/21 09:36:22;;;;;;;13.48;6.40;;;7.30;99.90;;;;;;5015995;28;20030;-75
2020/12/21 09:38:49;;;;;;;14.82;7.10;;;7.20;99.90;;;;;;5016280;28;20147;-73
2020/12/21 09:41:20;;;;;;;15.93;7.90;;;7.00;99.90;;;;;;5014506;28;20025;-74
2020/12/21 09:43:49;;;;;;;20.98;8.65;;;6.90;99.90;;;;;;5016971;28;20483;-73
2020/12/21 09:46:35;;;;;;;16.80;9.57;;;6.90;99.90;;;;;;5016971;28;20034;-73
2020/12/21 09:49:03;;;;;;;21.05;10.95;;;7.00;99.90;;;;;;5019182;28;20110;-73
2020/12/21 09:51:30;;;;;;;14.20;8.85;;;7.10;99.90;;;;;;5001250;28;20041;-74
2020/12/21 09:53:55;;;;;;;18.63;10.68;;;7.10;99.90;;;;;;5020464;28;20104;-73
2020/12/21 09:56:21;;;;;;;14.50;8.20;;;7.10;99.90;;;;;;5029920;28;20479;-73
2020/12/21 09:58:47;;;;;;;14.20;7.55;;;7.10;99.90;;;;;;5032930;28;20427;-74
2020/12/21 10:01:13;;;;;;;14.25;7.18;;;7.00;99.90;;;;;;5025587;28;20050;-74
2020/12/21 10:03:40;;;;;;;16.05;8.75;;;7.20;99.90;;;;;;5011761;28;20037;-75
2020/12/21 10:06:10;;;;;;;21.85;11.30;;;7.30;99.90;;;;;;5017525;28;20014;-72
2020/12/21 10:08:36;;;;;;;20.13;10.65;;;7.40;99.90;;;;;;5024925;28;20029;-72
2020/12/21 10:11:03;;;;;;;18.70;10.45;;;7.30;99.90;;;;;;5032863;28;20025;-74
2020/12/21 10:13:38;;;;;;;17.67;10.23;;;7.40;99.90;;;;;;5035008;28;20486;-74
2020/12/21 10:16:04;;;;;;;20.27;12.27;;;7.40;99.90;;;;;;5028919;28;20030;-74
2020/12/21 10:18:30;;;;;;;22.63;12.38;;;7.40;99.90;;;;;;5019721;28;20022;-73
2020/12/21 10:20:55;;;;;;;11.20;6.57;;;7.40;99.90;;;;;;5017145;28;20022;-79
2020/12/21 10:23:22;;;;;;;12.20;7.18;;;7.40;99.90;;;;;;5012280;28;20024;-74
2020/12/21 10:25:47;;;;;;;14.23;7.65;;;7.40;99.90;;;;;;5027089;28;20054;-72
2020/12/21 10:28:13;;;;;;;15.60;8.38;;;7.40;99.90;;;;;;5019741;28;20057;-73
2020/12/21 10:30:39;;;;;;;13.10;8.15;;;7.30;99.90;;;;;;5027347;28;20083;-75
2020/12/21 10:33:05;;;;;;;14.73;8.35;;;7.30;99.90;;;;;;5028149;28;20029;-73
2020/12/21 10:35:31;;;;;;;17.83;8.85;;;7.40;99.90;;;;;;5035797;28;20026;-74
2020/12/21 10:37:57;;;;;;;16.58;9.57;;;7.40;99.90;;;;;;5025222;28;20033;-74
2020/12/21 10:40:22;;;;;;;12.10;7.70;;;7.30;99.90;;;;;;5014534;28;20418;-74
2020/12/21 10:42:48;;;;;;;15.80;8.23;;;7.30;99.90;;;;;;5033891;28;20032;-74
2020/12/21 10:45:14;;;;;;;15.85;8.18;;;7.30;99.90;;;;;;5026170;28;20100;-75
2020/12/21 10:47:39;;;;;;;11.55;7.35;;;7.30;99.90;;;;;;5025125;28;20383;-73
2020/12/21 10:50:06;;;;;;;13.70;8.05;;;7.40;99.90;;;;;;5020568;28;20025;-72
2020/12/21 10:52:32;;;;;;;18.50;8.57;;;7.40;99.90;;;;;;5017895;28;20022;-73
2020/12/21 10:54:58;;;;;;;14.30;7.78;;;7.40;99.90;;;;;;5025590;28;20040;-75
2020/12/21 10:57:24;;;;;;;15.52;7.78;;;7.40;99.90;;;;;;5009280;28;20033;-74
2020/12/21 10:59:50;;;;;;;12.75;7.28;;;7.20;99.90;;;;;;4998931;28;20032;-73
2020/12/21 11:02:15;;;;;;;15.05;7.95;;;7.30;99.90;;;;;;5026140;28;20046;-73
2020/12/21 11:04:41;;;;;;;15.48;8.52;;;7.40;99.90;;;;;;5034734;28;20144;-72
2020/12/21 11:07:07;;;;;;;21.58;13.10;;;7.40;99.90;;;;;;5035854;28;20395;-73
2020/12/21 11:09:32;;;;;;;13.65;7.85;;;7.40;99.90;;;;;;5035876;28;20030;-73
2020/12/21 11:11:58;;;;;;;12.70;8.32;;;7.40;99.90;;;;;;5025671;28;20110;-75
2020/12/21 11:14:24;;;;;;;13.93;8.65;;;7.40;99.90;;;;;;5041967;28;20052;-74
2020/12/21 11:16:52;;;;;;;13.07;6.70;;;7.50;99.90;;;;;;5047557;28;20030;-73
2020/12/21 11:19:18;;;;;;;16.23;9.07;;;7.60;99.90;;;;;;5040576;28;20452;-75
2020/12/21 11:21:43;;;;;;;19.65;10.23;;;7.60;99.90;;;;;;5035488;28;20025;-72
2020/12/21 11:24:09;;;;;;;24.75;13.18;;;7.60;99.90;;;;;;5020364;28;20038;-76
2020/12/21 11:26:35;;;;;;;25.52;11.88;;;7.80;99.90;;;;;;5001344;28;20550;-71
2020/12/21 11:29:01;;;;;;;24.40;12.45;;;7.80;99.90;;;;;;5030983;28;20542;-74
2020/12/21 11:31:27;;;;;;;31.38;16.35;;;7.80;99.90;;;;;;5021945;28;20079;-75
2020/12/21 11:33:53;;;;;;;18.42;10.23;;;7.80;99.90;;;;;;5025540;28;20021;-77
2020/12/21 11:36:19;;;;;;;18.83;11.15;;;7.90;99.90;;;;;;5022367;28;20044;-74
2020/12/21 11:38:44;;;;;;;16.13;9.68;;;8.00;99.90;;;;;;5017418;28;20041;-73
2020/12/21 11:41:10;;;;;;;17.95;10.23;;;8.10;99.90;;;;;;5016270;28;20021;-73
2020/12/21 11:43:36;;;;;;;16.00;9.35;;;8.10;99.90;;;;;;5029947;28;20387;-73
2020/12/21 11:46:01;;;;;;;12.90;7.78;;;8.10;99.90;;;;;;5023410;28;20038;-73
2020/12/21 11:48:27;;;;;;;22.70;11.75;;;8.00;99.90;;;;;;5017264;28;20388;-77
2020/12/21 11:50:53;;;;;;;22.00;11.85;;;8.00;99.90;;;;;;5032908;28;20100;-75
2020/12/21 11:53:19;;;;;;;13.40;8.38;;;8.10;99.90;;;;;;5001802;28;20025;-76
2020/12/21 11:55:46;;;;;;;17.00;8.82;;;8.10;99.90;;;;;;5019275;28;20101;-75
2020/12/21 11:58:12;;;;;;;15.32;9.38;;;8.10;99.90;;;;;;5009105;28;20066;-73
2020/12/21 12:00:38;;;;;;;13.25;7.80;;;8.00;99.90;;;;;;5017463;28;20058;-79
2020/12/21 12:03:04;;;;;;;13.77;8.25;;;8.00;99.90;;;;;;5029928;28;20056;-77
2020/12/21 12:05:29;;;;;;;18.05;11.43;;;8.00;99.90;;;;;;5019195;28;20099;-72
2020/12/21 12:07:55;;;;;;;16.23;10.75;;;8.00;99.90;;;;;;5026021;28;20029;-74
2020/12/21 12:10:22;;;;;;;15.10;8.32;;;8.00;99.90;;;;;;5023742;28;20076;-73
2020/12/21 12:12:48;;;;;;;16.75;9.25;;;7.80;99.90;;;;;;5018082;28;20025;-74
2020/12/21 12:15:13;;;;;;;16.77;10.18;;;7.80;99.90;;;;;;5029636;28;20025;-75
2020/12/21 12:17:39;;;;;;;17.60;10.93;;;7.70;99.90;;;;;;5015833;28;20038;-73
2020/12/21 12:20:05;;;;;;;16.23;9.35;;;7.70;99.90;;;;;;5023437;28;20035;-73
2020/12/21 12:22:31;;;;;;;23.83;10.07;;;7.70;99.90;;;;;;5029410;28;20387;-75
2020/12/21 12:24:57;;;;;;;24.98;13.00;;;7.70;99.90;;;;;;5027163;28;20028;-72
2020/12/21 12:27:23;;;;;;;21.75;13.75;;;7.70;99.90;;;;;;5017623;28;20385;-73
2020/12/21 12:29:48;;;;;;;24.83;13.52;;;7.70;99.90;;;;;;5023132;28;20025;-72
2020/12/21 12:32:14;;;;;;;32.35;14.70;;;7.70;99.90;;;;;;5032009;28;20018;-74
2020/12/21 12:34:41;;;;;;;25.95;11.50;;;7.70;99.90;;;;;;5018217;28;20022;-74
2020/12/21 12:37:12;;;;;;;23.00;12.77;;;7.80;99.90;;;;;;5010210;28;20083;-77
2020/12/21 12:39:38;;;;;;;21.83;13.00;;;7.80;99.90;;;;;;5007072;28;20018;-77
2020/12/21 12:42:11;;;;;;;22.77;12.52;;;7.80;99.90;;;;;;5017804;28;20111;-77